Time;durP1;ratioP1;P1;durP2;ratioP2;P2;SDS_P1;SDS_P2;PMS_P1;PMS_P2;Temp;Humidity;BMP_temperature;BMP_pressure;BME280_temperature;BME280_humidity;BME280_pressure;Samples;Min_cycle;Max_cycle;Signal;HPM_P1;HPM_P2
2021/09/30 00:02:05;;;;;;;19.15;3.08;;;;;17.30;100927.00;;;;4818234;29;20051;-75
2021/09/30 00:04:35;;;;;;;11.10;3.28;;;;;17.30;100938.00;;;;4819096;29;20057;-75
2021/09/30 00:07:07;;;;;;;12.98;2.85;;;;;17.30;100944.00;;;;4819430;29;20046;-74
2021/09/30 00:09:39;;;;;;;8.27;1.60;;;;;17.30;100924.00;;;;4819064;29;20540;-73
2021/09/30 00:12:14;;;;;;;5.85;1.80;;;;;17.20;100949.00;;;;4818788;29;20060;-76
2021/09/30 00:15:08;;;;;;;8.70;1.95;;;;;17.20;100945.00;;;;4818216;29;20515;-75
2021/09/30 00:40:12;;;;;;;4.07;1.40;;;;;17.10;100946.00;;;;4796716;29;20442;-73
2021/09/30 01:20:53;;;;;;;17.15;3.35;;;;;16.60;100947.00;;;;4797452;29;20071;-74
2021/09/30 02:29:36;;;;;;;22.38;3.58;;;;;16.10;100904.00;;;;4804394;29;20050;-75
2021/09/30 02:58:15;;;;;;;7.45;1.60;;;;;15.90;100880.00;;;;4818861;29;20058;-74
2021/09/30 03:00:57;;;;;;;21.17;3.55;;;;;15.80;100870.00;;;;4803359;29;20062;-74
2021/09/30 03:03:28;;;;;;;25.80;4.28;;;;;15.80;100849.00;;;;4785094;29;20069;-74
2021/09/30 03:05:58;;;;;;;24.67;4.15;;;;;15.80;100862.00;;;;4800650;29;20431;-74
2021/09/30 03:08:31;;;;;;;24.17;4.15;;;;;15.70;100847.00;;;;4785738;29;20127;-74
2021/09/30 03:11:03;;;;;;;20.73;3.42;;;;;15.60;100854.00;;;;4800123;29;20054;-74
2021/09/30 03:13:34;;;;;;;20.23;3.28;;;;;15.70;100862.00;;;;4799891;29;20055;-75
2021/09/30 03:16:18;;;;;;;18.92;3.90;;;;;15.60;100837.00;;;;4785372;29;20059;-74
2021/09/30 03:18:59;;;;;;;19.40;3.03;;;;;15.60;100851.00;;;;4800997;29;20078;-75
2021/09/30 03:24:23;;;;;;;24.38;3.78;;;;;15.60;100837.00;;;;4795015;29;20061;-74
2021/09/30 03:26:53;;;;;;;24.08;3.58;;;;;15.60;100822.00;;;;4802088;29;20411;-74
2021/09/30 03:29:23;;;;;;;29.13;4.75;;;;;15.60;100814.00;;;;4799977;29;20055;-74
2021/09/30 03:31:53;;;;;;;24.98;3.40;;;;;15.60;100811.00;;;;4800435;29;20086;-74
2021/09/30 03:34:41;;;;;;;27.98;3.72;;;;;15.60;100812.00;;;;4801047;29;20086;-73
2021/09/30 03:37:11;;;;;;;23.83;3.60;;;;;15.60;100815.00;;;;4800248;29;20054;-73
2021/09/30 03:39:41;;;;;;;25.60;3.88;;;;;15.60;100815.00;;;;4785182;29;20533;-73
2021/09/30 03:42:11;;;;;;;23.10;3.47;;;;;15.60;100807.00;;;;4799704;29;20054;-75
2021/09/30 03:44:45;;;;;;;29.13;4.25;;;;;15.60;100808.00;;;;4799426;29;20062;-75
2021/09/30 03:47:18;;;;;;;19.98;13.80;;;;;15.60;100819.00;;;;4784855;29;20078;-74
2021/09/30 03:49:57;;;;;;;16.48;2.53;;;;;15.60;100793.00;;;;4799822;29;20057;-76
2021/09/30 04:00:42;;;;;;;22.65;3.33;;;;;15.40;100796.00;;;;4784363;29;20554;-75
2021/09/30 04:03:12;;;;;;;22.58;3.55;;;;;15.40;100767.00;;;;4818531;29;20074;-75
2021/09/30 04:05:47;;;;;;;20.35;3.33;;;;;15.30;100778.00;;;;4816690;29;20103;-74
2021/09/30 04:08:18;;;;;;;19.13;3.65;;;;;15.30;100775.00;;;;4803485;29;20082;-74
2021/09/30 04:10:47;;;;;;;21.75;3.90;;;;;15.30;100768.00;;;;4817908;29;20062;-73
2021/09/30 04:13:17;;;;;;;22.15;3.17;;;;;15.30;100787.00;;;;4816847;29;21192;-75
2021/09/30 04:15:50;;;;;;;17.08;3.00;;;;;15.30;100761.00;;;;4801876;29;20054;-75
2021/09/30 04:18:20;;;;;;;22.15;3.47;;;;;15.30;100756.00;;;;4818335;29;20363;-74
2021/09/30 04:20:50;;;;;;;25.43;4.63;;;;;15.30;100770.00;;;;4802345;29;20055;-73
2021/09/30 04:23:21;;;;;;;24.25;3.33;;;;;15.30;100763.00;;;;4818894;29;20038;-74
2021/09/30 04:25:50;;;;;;;22.83;3.75;;;;;15.20;100755.00;;;;4817240;29;20143;-75
2021/09/30 04:28:20;;;;;;;19.80;3.53;;;;;15.40;100737.00;;;;4818237;29;20087;-73
2021/09/30 04:30:55;;;;;;;19.50;3.05;;;;;15.30;100730.00;;;;4817501;29;20086;-74
2021/09/30 04:33:41;;;;;;;15.18;2.83;;;;;15.20;100731.00;;;;4817152;29;20107;-74
2021/09/30 04:36:11;;;;;;;16.50;3.22;;;;;15.10;100714.00;;;;4817293;29;20055;-74
2021/09/30 04:38:40;;;;;;;19.17;3.22;;;;;15.20;100724.00;;;;4816888;29;20059;-74
2021/09/30 04:41:12;;;;;;;20.00;3.67;;;;;15.20;100694.00;;;;4816332;29;20093;-74
2021/09/30 04:43:46;;;;;;;17.50;2.72;;;;;15.20;100714.00;;;;4817574;29;20530;-74
2021/09/30 04:46:19;;;;;;;23.55;4.43;;;;;15.20;100695.00;;;;4818640;29;20100;-74
2021/09/30 04:49:09;;;;;;;14.70;2.63;;;;;15.20;100694.00;;;;4801667;29;20057;-74
2021/09/30 04:51:39;;;;;;;17.85;2.83;;;;;15.20;100680.00;;;;4816621;29;20054;-74
2021/09/30 04:54:09;;;;;;;19.00;3.15;;;;;15.10;100700.00;;;;4801589;29;20050;-74
2021/09/30 04:56:39;;;;;;;;;;;;;15.10;100704.00;;;;4818899;29;20407;-74
2021/09/30 04:59:18;;;;;;;17.38;3.22;;;;;15.10;100696.00;;;;4816835;29;20023;-74
2021/09/30 05:02:05;;;;;;;13.82;2.70;;;;;15.10;100680.00;;;;4816380;29;20069;-74
2021/09/30 05:04:35;;;;;;;12.63;2.70;;;;;15.10;100666.00;;;;4816645;29;20099;-74
2021/09/30 05:07:04;;;;;;;25.35;3.78;;;;;15.10;100688.00;;;;4816894;29;20053;-74
2021/09/30 05:09:34;;;;;;;18.65;2.85;;;;;15.00;100671.00;;;;4816460;29;20062;-75
2021/09/30 05:12:07;;;;;;;16.87;3.10;;;;;14.90;100664.00;;;;4802513;29;20137;-74
2021/09/30 05:14:37;;;;;;;19.10;2.78;;;;;14.90;100655.00;;;;4816982;29;20444;-74
2021/09/30 05:17:07;;;;;;;19.98;3.15;;;;;14.80;100657.00;;;;4801581;29;20133;-74
2021/09/30 05:19:40;;;;;;;16.13;3.50;;;;;14.80;100658.00;;;;4816459;29;20512;-74
2021/09/30 05:22:14;;;;;;;27.80;3.67;;;;;14.80;100663.00;;;;4816512;29;20080;-74
2021/09/30 05:24:43;;;;;;;15.18;2.63;;;;;14.70;100658.00;;;;4818727;29;20039;-75
2021/09/30 05:27:12;;;;;;;29.70;3.75;;;;;14.60;100660.00;;;;4827421;29;20038;-74
2021/09/30 05:29:42;;;;;;;17.55;3.00;;;;;14.60;100660.00;;;;4841927;29;20053;-75
2021/09/30 05:32:13;;;;;;;14.65;2.50;;;;;14.60;100661.00;;;;4808433;29;20058;-74
2021/09/30 05:35:01;;;;;;;13.38;2.70;;;;;14.60;100640.00;;;;4818226;29;20141;-74
2021/09/30 05:37:40;;;;;;;17.10;2.42;;;;;14.60;100649.00;;;;4816629;29;20086;-74
2021/09/30 05:40:14;;;;;;;13.88;2.38;;;;;14.50;100626.00;;;;4818059;29;20868;-75
2021/09/30 05:42:48;;;;;;;12.32;2.20;;;;;14.60;100617.00;;;;4816346;29;20606;-74
2021/09/30 05:45:19;;;;;;;14.85;2.78;;;;;14.60;100625.00;;;;4816407;29;20054;-74
2021/09/30 05:47:48;;;;;;;15.55;2.95;;;;;14.60;100637.00;;;;4815644;29;20073;-74
2021/09/30 05:50:18;;;;;;;75.68;9.57;;;;;14.50;100608.00;;;;4817515;29;20047;-74
2021/09/30 05:52:50;;;;;;;20.73;3.17;;;;;14.50;100607.00;;;;4818088;29;20063;-74
2021/09/30 05:55:43;;;;;;;14.60;3.05;;;;;14.50;100620.00;;;;4817109;29;20529;-74
2021/09/30 05:58:14;;;;;;;12.65;2.97;;;;;14.40;100608.00;;;;4816426;29;20065;-75
2021/09/30 06:14:09;;;;;;;13.43;3.80;;;;;14.40;100564.00;;;;4817091;29;20052;-74
2021/09/30 06:16:45;;;;;;;8.88;4.53;;;;;14.40;100558.00;;;;4815783;29;20054;-74
2021/09/30 06:19:32;;;;;;;197.93;155.23;;;;;14.40;100536.00;;;;4813306;29;20058;-75
2021/09/30 06:22:07;;;;;;;16.17;2.85;;;;;14.40;100550.00;;;;4815971;29;20061;-75
2021/09/30 06:24:39;;;;;;;15.13;2.92;;;;;14.50;100556.00;;;;4800437;29;20125;-75
2021/09/30 06:27:28;;;;;;;9.07;2.20;;;;;14.50;100538.00;;;;4815469;29;20411;-75
2021/09/30 06:29:59;;;;;;;10.40;2.65;;;;;14.50;100559.00;;;;4815649;29;20054;-74
2021/09/30 06:32:32;;;;;;;9.48;2.58;;;;;14.50;100536.00;;;;4815863;29;20054;-75
2021/09/30 06:35:28;;;;;;;7.47;1.90;;;;;14.50;100522.00;;;;4816296;29;20116;-74
2021/09/30 06:37:57;;;;;;;7.50;1.70;;;;;14.50;100540.00;;;;4819503;29;20070;-74
2021/09/30 06:40:27;;;;;;;4.55;1.40;;;;;14.50;100514.00;;;;4818514;29;20054;-75
2021/09/30 06:42:58;;;;;;;3.40;1.23;;;;;14.50;100529.00;;;;4803760;29;20093;-74
2021/09/30 06:45:46;;;;;;;10.02;1.83;;;;;14.40;100539.00;;;;4820697;29;20251;-74
2021/09/30 06:48:42;;;;;;;12.35;2.75;;;;;14.40;100519.00;;;;4816430;29;20430;-74
2021/09/30 06:51:24;;;;;;;14.18;2.08;;;;;14.30;100515.00;;;;4818858;29;20058;-74
2021/09/30 06:53:54;;;;;;;9.25;2.28;;;;;14.30;100513.00;;;;4818902;29;20058;-74
2021/09/30 06:56:58;;;;;;;6.00;1.70;;;;;14.30;100516.00;;;;4763364;30;20528;-74
2021/09/30 06:59:47;;;;;;;8.32;1.90;;;;;14.30;100497.00;;;;4816662;29;20123;-74
2021/09/30 07:02:48;;;;;;;7.65;2.00;;;;;14.30;100503.00;;;;4788632;29;20110;-74
2021/09/30 07:05:45;;;;;;;6.63;1.40;;;;;14.30;100510.00;;;;4819088;29;20055;-74
2021/09/30 07:08:22;;;;;;;5.95;1.60;;;;;14.30;100507.00;;;;4803830;29;20136;-74
2021/09/30 07:10:53;;;;;;;6.10;1.75;;;;;14.30;100516.00;;;;4818283;29;20050;-73
2021/09/30 07:13:22;;;;;;;4.78;1.63;;;;;14.30;100524.00;;;;4819481;29;20054;-74
2021/09/30 07:15:53;;;;;;;5.78;1.73;;;;;14.40;100481.00;;;;4819952;29;20058;-74
2021/09/30 07:18:22;;;;;;;5.25;1.50;;;;;14.30;100502.00;;;;4819805;29;20107;-74
2021/09/30 07:20:57;;;;;;;5.78;1.52;;;;;14.30;100501.00;;;;4819571;29;20058;-74
2021/09/30 07:23:31;;;;;;;2.08;0.70;;;;;14.30;100503.00;;;;4819757;29;20125;-74
2021/09/30 07:26:01;;;;;;;2.60;0.70;;;;;14.30;100470.00;;;;4818446;29;20145;-74
2021/09/30 07:28:30;;;;;;;2.95;1.00;;;;;14.30;100504.00;;;;4819701;29;20554;-74
2021/09/30 07:31:00;;;;;;;2.35;0.85;;;;;14.30;100484.00;;;;4819555;29;20042;-74
2021/09/30 07:33:30;;;;;;;1.95;0.85;;;;;14.30;100508.00;;;;4819465;29;20094;-74
2021/09/30 07:36:00;;;;;;;1.63;0.80;;;;;14.50;100484.00;;;;4818855;29;20057;-74
2021/09/30 07:38:29;;;;;;;4.38;1.25;;;;;14.50;100501.00;;;;4803271;29;20054;-74
2021/09/30 07:40:59;;;;;;;3.05;1.10;;;;;14.40;100479.00;;;;4818548;29;20054;-73
2021/09/30 07:43:29;;;;;;;2.35;1.00;;;;;14.30;100499.00;;;;4819136;29;20423;-74
2021/09/30 07:45:58;;;;;;;2.67;1.30;;;;;14.20;100481.00;;;;4819156;29;20375;-74
2021/09/30 07:48:28;;;;;;;6.43;1.75;;;;;14.20;100472.00;;;;4817660;29;20065;-73
2021/09/30 07:51:01;;;;;;;1.33;0.65;;;;;14.10;100481.00;;;;4818235;29;20541;-73
2021/09/30 07:53:31;;;;;;;0.30;0.30;;;;;14.10;100472.00;;;;4819276;29;20074;-73
2021/09/30 07:56:00;;;;;;;0.40;0.40;;;;;14.30;100481.00;;;;4819676;29;20050;-74
2021/09/30 07:58:30;;;;;;;0.10;0.10;;;;;14.30;100477.00;;;;4818016;29;20526;-74
2021/09/30 08:01:00;;;;;;;3.08;0.93;;;;;14.10;100463.00;;;;4801848;29;20050;-74
2021/09/30 08:03:29;;;;;;;1.02;0.52;;;;;14.20;100452.00;;;;4818547;29;20054;-73
2021/09/30 08:05:59;;;;;;;0.00;0.00;;;;;14.20;100465.00;;;;4818121;29;20062;-73
2021/09/30 08:08:31;;;;;;;0.00;0.00;;;;;14.10;100476.00;;;;4818336;29;20054;-73
2021/09/30 08:11:01;;;;;;;0.00;0.00;;;;;14.00;100502.00;;;;4818615;29;20042;-74
2021/09/30 08:13:31;;;;;;;1.50;0.70;;;;;13.90;100505.00;;;;4818263;29;20050;-74
2021/09/30 08:16:01;;;;;;;1.20;0.65;;;;;13.90;100494.00;;;;4818819;29;20058;-74
2021/09/30 08:18:31;;;;;;;1.77;0.80;;;;;13.90;100493.00;;;;4802304;29;20062;-75
2021/09/30 08:21:01;;;;;;;1.87;0.90;;;;;13.80;100498.00;;;;4819220;29;20145;-74
2021/09/30 08:23:31;;;;;;;8.73;2.08;;;;;13.70;100494.00;;;;4819443;29;20068;-75
2021/09/30 08:26:00;;;;;;;4.82;2.00;;;;;13.70;100488.00;;;;4818230;29;20050;-74
2021/09/30 08:28:30;;;;;;;2.80;1.02;;;;;13.70;100512.00;;;;4818207;29;20046;-74
2021/09/30 08:31:00;;;;;;;2.65;1.10;;;;;13.60;100490.00;;;;4817326;29;20069;-74
2021/09/30 08:33:29;;;;;;;2.53;0.95;;;;;13.50;100499.00;;;;4818387;29;20490;-73
2021/09/30 08:36:00;;;;;;;4.20;1.63;;;;;13.40;100497.00;;;;4817938;29;20463;-74
2021/09/30 08:38:29;;;;;;;2.70;1.02;;;;;13.30;100511.00;;;;4818396;29;20099;-74
2021/09/30 08:40:58;;;;;;;3.10;1.08;;;;;13.20;100513.00;;;;4818454;29;20064;-75
2021/09/30 08:43:28;;;;;;;1.15;0.60;;;;;13.10;100519.00;;;;4818441;29;20691;-74
2021/09/30 08:45:57;;;;;;;5.28;1.58;;;;;13.00;100506.00;;;;4818448;29;20062;-74
2021/09/30 08:48:26;;;;;;;7.63;1.55;;;;;13.10;100517.00;;;;4819327;29;20050;-74
2021/09/30 08:50:56;;;;;;;8.25;1.92;;;;;13.00;100513.00;;;;4817752;29;20046;-74
2021/09/30 08:53:25;;;;;;;18.08;2.38;;;;;12.90;100537.00;;;;4817944;29;20054;-75
2021/09/30 08:55:55;;;;;;;13.65;2.85;;;;;12.80;100517.00;;;;4802138;29;20410;-74
2021/09/30 08:58:24;;;;;;;6.93;1.83;;;;;12.80;100534.00;;;;4818132;29;20053;-74
2021/09/30 09:00:58;;;;;;;1.15;0.60;;;;;12.70;100518.00;;;;4817683;29;20065;-73
2021/09/30 09:03:54;;;;;;;15.77;3.13;;;;;12.70;100534.00;;;;4799736;29;20514;-74
2021/09/30 09:06:33;;;;;;;27.55;4.13;;;;;12.70;100511.00;;;;4798779;29;20138;-74
2021/09/30 09:09:23;;;;;;;19.58;3.35;;;;;12.70;100515.00;;;;4800240;29;20210;-74
2021/09/30 09:11:55;;;;;;;21.38;2.78;;;;;12.70;100496.00;;;;4799174;29;20104;-74
2021/09/30 09:14:27;;;;;;;21.70;2.85;;;;;12.60;100499.00;;;;4783333;29;20062;-74
2021/09/30 09:17:03;;;;;;;16.55;2.83;;;;;12.60;100500.00;;;;4799920;29;20047;-75
2021/09/30 09:19:44;;;;;;;23.83;3.10;;;;;12.60;100502.00;;;;4800215;29;20134;-73
2021/09/30 09:22:22;;;;;;;20.98;2.85;;;;;12.70;100500.00;;;;4799731;29;20514;-74
2021/09/30 09:25:05;;;;;;;16.45;2.83;;;;;12.70;100502.00;;;;4800193;29;20050;-75
2021/09/30 09:27:45;;;;;;;15.30;3.63;;;;;12.80;100499.00;;;;4798611;29;20539;-74
2021/09/30 09:30:28;;;;;;;10.13;1.95;;;;;12.80;100524.00;;;;4799537;29;20046;-75
2021/09/30 09:33:02;;;;;;;18.77;3.40;;;;;12.80;100520.00;;;;4798933;29;20071;-74
2021/09/30 09:36:08;;;;;;;18.52;3.42;;;;;12.90;100506.00;;;;4799753;29;20062;-74
2021/09/30 09:38:43;;;;;;;21.25;3.47;;;;;13.20;100513.00;;;;4780548;29;20124;-74
2021/09/30 09:41:22;;;;;;;17.23;3.38;;;;;13.20;100486.00;;;;4799268;29;20096;-73
2021/09/30 09:43:55;;;;;;;19.02;3.30;;;;;13.30;100481.00;;;;4798724;29;20050;-75
2021/09/30 09:46:45;;;;;;;19.27;4.13;;;;;13.60;100507.00;;;;4799090;29;20135;-74
2021/09/30 09:49:19;;;;;;;29.50;5.25;;;;;13.90;100500.00;;;;4799012;29;20055;-74
2021/09/30 09:51:52;;;;;;;29.13;4.80;;;;;14.40;100490.00;;;;4799363;29;20054;-74
2021/09/30 09:54:26;;;;;;;20.55;3.50;;;;;14.70;100474.00;;;;4799762;29;20458;-74
2021/09/30 09:57:10;;;;;;;21.75;3.20;;;;;15.00;100493.00;;;;4803501;29;20058;-74
2021/09/30 09:59:42;;;;;;;14.15;2.35;;;;;15.30;100471.00;;;;4821195;29;20081;-74
2021/09/30 10:02:31;;;;;;;18.88;3.15;;;;;15.40;100478.00;;;;4830794;29;20072;-74
2021/09/30 10:05:01;;;;;;;12.02;2.55;;;;;15.60;100480.00;;;;4817592;29;20070;-74
2021/09/30 10:07:32;;;;;;;27.90;3.20;;;;;15.80;100484.00;;;;4817981;29;20412;-74
2021/09/30 10:10:02;;;;;;;13.18;2.70;;;;;16.20;100481.00;;;;4817438;29;20092;-74
2021/09/30 10:12:32;;;;;;;22.90;2.75;;;;;16.50;100448.00;;;;4818372;29;20042;-75
2021/09/30 10:15:02;;;;;;;12.75;2.33;;;;;16.80;100469.00;;;;4820662;29;20050;-73
2021/09/30 10:17:31;;;;;;;22.75;2.83;;;;;17.00;100464.00;;;;4820530;29;20061;-73
2021/09/30 10:20:03;;;;;;;12.18;2.50;;;;;17.20;100441.00;;;;4820257;29;20514;-73
2021/09/30 10:22:33;;;;;;;9.95;2.25;;;;;17.40;100460.00;;;;4819347;29;20478;-76
2021/09/30 10:25:03;;;;;;;38.08;5.30;;;;;17.40;100456.00;;;;4818121;29;20053;-74
2021/09/30 10:27:36;;;;;;;13.07;2.42;;;;;17.40;100466.00;;;;4821047;29;20054;-74
2021/09/30 10:30:06;;;;;;;10.18;2.42;;;;;17.80;100442.00;;;;4820476;29;20055;-75
2021/09/30 10:32:50;;;;;;;14.07;2.60;;;;;18.60;100432.00;;;;4820785;29;20149;-76
2021/09/30 10:35:32;;;;;;;11.82;2.22;;;;;18.90;100431.00;;;;4820243;29;20054;-75
2021/09/30 10:38:34;;;;;;;25.33;3.28;;;;;19.90;100384.00;;;;4820703;29;20050;-74
2021/09/30 10:41:13;;;;;;;19.45;3.08;;;;;19.20;100458.00;;;;4819371;29;20595;-74
2021/09/30 10:43:46;;;;;;;24.77;3.35;;;;;18.60;100475.00;;;;4819179;29;20054;-76
2021/09/30 10:46:26;;;;;;;23.35;2.80;;;;;18.30;100471.00;;;;4820008;29;20133;-75
2021/09/30 10:48:56;;;;;;;6.43;2.03;;;;;17.80;100465.00;;;;4820379;29;20057;-75
2021/09/30 10:51:30;;;;;;;8.27;1.88;;;;;17.70;100476.00;;;;4820132;29;20053;-75
2021/09/30 10:53:59;;;;;;;23.95;3.28;;;;;17.70;100482.00;;;;4818072;29;20054;-75
2021/09/30 10:56:38;;;;;;;11.55;1.80;;;;;20.00;100333.00;;;;4820241;29;20051;-74
2021/09/30 10:59:08;;;;;;;13.98;2.28;;;;;22.60;100338.00;;;;4820364;29;20100;-74
2021/09/30 11:01:52;;;;;;;8.45;2.70;;;;;24.80;100274.00;;;;4819487;29;20046;-75
2021/09/30 11:04:25;;;;;;;4.50;1.65;;;;;25.10;100341.00;;;;4819385;29;20046;-76
2021/09/30 11:07:16;;;;;;;10.40;2.70;;;;;22.40;100409.00;;;;4819824;29;20050;-75
2021/09/30 11:10:25;;;;;;;4.18;1.00;;;;;21.10;100465.00;;;;4819835;29;20113;-75
2021/09/30 11:13:19;;;;;;;9.23;1.83;;;;;21.40;100476.00;;;;4819313;29;20126;-76
2021/09/30 11:16:05;;;;;;;4.38;1.38;;;;;22.50;100423.00;;;;4819732;29;20084;-76
2021/09/30 11:18:52;;;;;;;5.40;1.48;;;;;23.00;100491.00;;;;4818880;29;20062;-75
2021/09/30 11:21:31;;;;;;;3.25;1.08;;;;;21.30;100518.00;;;;4819438;29;20130;-75
2021/09/30 11:24:06;;;;;;;0.70;0.30;;;;;20.00;100543.00;;;;4819876;29;20541;-75
2021/09/30 11:26:48;;;;;;;0.50;0.30;;;;;19.50;100529.00;;;;4819403;29;20050;-75
2021/09/30 11:29:25;;;;;;;1.48;0.73;;;;;20.30;100408.00;;;;4819210;29;20050;-75
2021/09/30 11:31:54;;;;;;;2.03;0.85;;;;;20.20;100557.00;;;;4819405;29;20082;-76
2021/09/30 11:34:28;;;;;;;5.97;1.30;;;;;19.90;100553.00;;;;4819329;29;20046;-75
2021/09/30 11:37:00;;;;;;;6.25;2.03;;;;;20.50;100541.00;;;;4819116;29;20092;-75
2021/09/30 11:39:34;;;;;;;11.77;2.03;;;;;20.30;100567.00;;;;4819880;29;20058;-75
2021/09/30 11:42:05;;;;;;;11.50;1.90;;;;;21.20;100553.00;;;;4816666;29;20050;-75
2021/09/30 11:44:34;;;;;;;18.92;2.95;;;;;21.60;100533.00;;;;4819855;29;20054;-75
2021/09/30 11:47:04;;;;;;;10.18;1.75;;;;;21.60;100449.00;;;;4819378;29;20050;-75
2021/09/30 11:49:43;;;;;;;37.65;9.73;;;;;21.40;100563.00;;;;4819434;29;20046;-74
2021/09/30 11:52:15;;;;;;;24.60;2.80;;;;;21.40;100362.00;;;;4819285;29;20050;-74
2021/09/30 11:54:45;;;;;;;9.27;2.85;;;;;22.90;100587.00;;;;4818970;29;20419;-75
2021/09/30 11:57:26;;;;;;;20.92;4.55;;;;;20.50;100630.00;;;;4819319;29;20054;-75
2021/09/30 12:00:12;;;;;;;18.88;4.03;;;;;19.90;100546.00;;;;4819214;29;20576;-75
2021/09/30 12:02:56;;;;;;;31.05;4.40;;;;;25.40;100463.00;;;;4818503;29;20125;-75
2021/09/30 12:05:30;;;;;;;10.82;4.15;;;;;26.70;100476.00;;;;4818131;29;20057;-76
2021/09/30 12:08:02;;;;;;;12.40;3.92;;;;;28.00;100447.00;;;;4819178;29;20050;-76
2021/09/30 12:10:34;;;;;;;29.95;4.93;;;;;24.50;100630.00;;;;4818687;29;20575;-75
2021/09/30 12:13:21;;;;;;;9.77;2.78;;;;;24.60;100552.00;;;;4810494;29;20130;-75
2021/09/30 12:15:51;;;;;;;10.63;3.25;;;;;25.50;100436.00;;;;4801260;29;20496;-75
2021/09/30 12:18:23;;;;;;;12.32;3.53;;;;;24.20;100394.00;;;;4801015;29;20523;-75
2021/09/30 12:20:57;;;;;;;11.82;3.30;;;;;26.20;100455.00;;;;4800346;29;20051;-76
2021/09/30 12:23:28;;;;;;;10.95;2.92;;;;;26.30;100392.00;;;;4799995;29;20155;-75
2021/09/30 12:26:00;;;;;;;19.50;4.55;;;;;25.70;100390.00;;;;4800741;29;20058;-75
2021/09/30 12:28:30;;;;;;;10.25;3.38;;;;;25.30;100560.00;;;;4800475;29;20058;-75
2021/09/30 12:31:06;;;;;;;5.25;1.00;;;;;24.00;100520.00;;;;4784303;29;20061;-76
2021/09/30 12:33:36;;;;;;;4.03;3.63;;;;;24.30;100527.00;;;;4800505;29;20059;-75
2021/09/30 12:36:07;;;;;;;11.63;10.57;;;;;24.30;100517.00;;;;4799274;29;20072;-75
2021/09/30 12:38:39;;;;;;;10.02;2.65;;;;;24.00;100519.00;;;;4784365;29;20050;-75
2021/09/30 12:41:09;;;;;;;3.55;1.02;;;;;23.30;100518.00;;;;4799628;29;20082;-75
2021/09/30 12:43:42;;;;;;;18.48;2.40;;;;;22.90;100531.00;;;;4800807;29;20052;-77
2021/09/30 12:46:13;;;;;;;12.73;2.47;;;;;22.20;100557.00;;;;4793688;29;20054;-74
2021/09/30 12:48:42;;;;;;;4.80;1.40;;;;;21.90;100551.00;;;;4799901;29;20544;-75
2021/09/30 12:51:17;;;;;;;13.90;2.30;;;;;22.00;100530.00;;;;4800530;29;20061;-75
2021/09/30 12:53:52;;;;;;;5.93;1.60;;;;;22.00;100527.00;;;;4800038;29;20681;-75
2021/09/30 12:56:28;;;;;;;14.23;3.20;;;;;21.50;100520.00;;;;4799631;29;20536;-74
2021/09/30 12:59:14;;;;;;;4.93;1.42;;;;;21.20;100547.00;;;;4799558;29;20055;-75
2021/09/30 13:01:44;;;;;;;2.40;0.93;;;;;21.00;100537.00;;;;4805995;29;20046;-75
2021/09/30 13:04:23;;;;;;;9.60;2.33;;;;;21.00;100522.00;;;;4818031;29;20093;-75
2021/09/30 13:07:00;;;;;;;6.40;1.63;;;;;21.10;100517.00;;;;4818142;29;20088;-74
2021/09/30 13:09:33;;;;;;;4.72;1.20;;;;;21.40;100494.00;;;;4818220;29;20556;-74
2021/09/30 13:12:20;;;;;;;7.38;1.00;;;;;21.90;100455.00;;;;4817836;29;20046;-75
2021/09/30 13:14:50;;;;;;;5.78;1.20;;;;;21.90;100445.00;;;;4817678;29;20484;-74
2021/09/30 13:17:24;;;;;;;7.82;1.10;;;;;21.60;100464.00;;;;4817922;29;20530;-74
2021/09/30 13:20:06;;;;;;;12.88;1.92;;;;;21.40;100472.00;;;;4817427;29;20050;-74
2021/09/30 13:22:41;;;;;;;23.40;2.60;;;;;21.30;100469.00;;;;4817980;29;20104;-75
2021/09/30 13:25:18;;;;;;;11.27;1.90;;;;;21.30;100463.00;;;;4817612;29;20078;-75
2021/09/30 13:27:50;;;;;;;3.10;1.02;;;;;21.30;100478.00;;;;4818403;29;20441;-74
2021/09/30 13:30:37;;;;;;;5.85;1.08;;;;;21.50;100482.00;;;;4817209;29;20098;-74
2021/09/30 13:33:07;;;;;;;2.50;0.98;;;;;21.80;100480.00;;;;4818212;29;20631;-75
2021/09/30 13:35:39;;;;;;;1.55;0.75;;;;;21.80;100488.00;;;;4818481;29;20042;-74
2021/09/30 13:38:09;;;;;;;3.85;0.82;;;;;22.00;100476.00;;;;4817927;29;20133;-75
2021/09/30 13:40:39;;;;;;;2.10;0.90;;;;;22.10;100480.00;;;;4816955;29;20125;-75
2021/09/30 13:43:09;;;;;;;8.07;1.42;;;;;22.10;100473.00;;;;4817781;29;20070;-75
2021/09/30 13:45:39;;;;;;;8.00;1.63;;;;;22.20;100472.00;;;;4817791;29;20053;-75
2021/09/30 13:48:08;;;;;;;8.82;1.63;;;;;22.20;100442.00;;;;4820118;29;20110;-74
2021/09/30 13:50:37;;;;;;;16.55;1.92;;;;;21.90;100435.00;;;;4821284;29;20054;-75
2021/09/30 13:53:07;;;;;;;15.57;2.08;;;;;21.60;100411.00;;;;4821003;29;20042;-74
2021/09/30 13:55:36;;;;;;;7.40;1.40;;;;;21.50;100410.00;;;;4821155;29;20444;-76
2021/09/30 13:58:05;;;;;;;4.75;1.35;;;;;21.70;100425.00;;;;4821041;29;20054;-74
2021/09/30 14:00:35;;;;;;;5.03;1.70;;;;;22.00;100420.00;;;;4820964;29;20058;-74
2021/09/30 14:03:06;;;;;;;8.93;2.17;;;;;23.00;100411.00;;;;4813669;29;20050;-75
2021/09/30 14:05:35;;;;;;;11.05;1.85;;;;;23.50;100392.00;;;;4820552;29;20107;-75
2021/09/30 14:08:05;;;;;;;5.35;1.95;;;;;24.60;100357.00;;;;4820650;29;20522;-75
2021/09/30 14:10:34;;;;;;;7.30;1.40;;;;;24.90;100417.00;;;;4821157;29;20498;-76
2021/09/30 14:13:04;;;;;;;4.47;1.30;;;;;25.50;100344.00;;;;4820737;29;20073;-76
2021/09/30 14:15:35;;;;;;;2.88;0.93;;;;;25.80;100355.00;;;;4819950;29;20048;-75
2021/09/30 14:18:04;;;;;;;3.70;1.05;;;;;25.70;100361.00;;;;4812817;29;20484;-75
2021/09/30 14:20:33;;;;;;;1.38;1.15;;;;;25.10;100377.00;;;;4819915;29;20057;-75
2021/09/30 14:23:03;;;;;;;1.88;0.43;;;;;25.50;100397.00;;;;4821075;29;20058;-76
2021/09/30 14:25:33;;;;;;;5.37;3.00;;;;;24.40;100369.00;;;;4820661;29;20089;-75
2021/09/30 14:28:03;;;;;;;6.63;1.63;;;;;24.60;100421.00;;;;4821027;29;20038;-75
2021/09/30 14:30:32;;;;;;;2.80;0.90;;;;;25.40;100330.00;;;;4820157;29;20431;-75
2021/09/30 14:33:18;;;;;;;2.72;1.42;;;;;24.90;100390.00;;;;4820326;29;20174;-75
2021/09/30 14:35:48;;;;;;;2.35;1.27;;;;;25.60;100384.00;;;;4820346;29;20050;-76
2021/09/30 14:38:18;;;;;;;3.60;1.52;;;;;25.40;100370.00;;;;4820285;29;20426;-76
2021/09/30 14:40:51;;;;;;;5.37;1.70;;;;;25.60;100363.00;;;;4820001;29;20054;-75
2021/09/30 14:43:31;;;;;;;11.02;2.55;;;;;25.70;100399.00;;;;4802147;29;20291;-75
2021/09/30 14:46:00;;;;;;;3.85;1.42;;;;;25.30;100388.00;;;;4802419;29;20074;-75
2021/09/30 14:48:30;;;;;;;6.93;1.70;;;;;25.60;100377.00;;;;4802193;29;20058;-75
2021/09/30 14:51:02;;;;;;;7.13;1.55;;;;;25.60;100307.00;;;;4802309;29;20046;-75
2021/09/30 14:53:32;;;;;;;6.70;1.90;;;;;25.50;100322.00;;;;4802309;29;20054;-76
2021/09/30 14:56:03;;;;;;;8.65;2.35;;;;;24.90;100339.00;;;;4802567;29;20411;-74
2021/09/30 14:58:35;;;;;;;3.33;1.40;;;;;24.30;100318.00;;;;4801612;29;20130;-75
2021/09/30 15:01:07;;;;;;;6.75;2.78;;;;;25.20;100281.00;;;;4794605;29;20051;-75
2021/09/30 15:03:37;;;;;;;13.38;2.92;;;;;25.60;100331.00;;;;4802574;29;20074;-75
2021/09/30 15:06:13;;;;;;;6.50;2.83;;;;;25.80;100283.00;;;;4801617;29;20049;-77
2021/09/30 15:08:43;;;;;;;9.80;1.77;;;;;26.40;100333.00;;;;4801461;29;20046;-74
2021/09/30 15:11:12;;;;;;;8.77;1.85;;;;;26.40;100261.00;;;;4801321;29;20081;-75
2021/09/30 15:13:41;;;;;;;7.18;2.47;;;;;26.60;100316.00;;;;4801761;29;20179;-75
2021/09/30 15:16:11;;;;;;;4.00;1.90;;;;;25.60;100308.00;;;;4800353;29;20050;-75
2021/09/30 15:24:05;;;;;;;17.13;3.53;;;;;25.30;100281.00;;;;4801474;29;20046;-75
2021/09/30 15:26:35;;;;;;;9.48;4.03;;;;;25.20;100225.00;;;;4785469;29;20089;-74
2021/09/30 15:29:04;;;;;;;7.10;2.88;;;;;25.20;100180.00;;;;4800656;29;20058;-74
2021/09/30 15:31:34;;;;;;;7.93;2.85;;;;;26.00;100186.00;;;;4802169;29;20574;-75
2021/09/30 15:34:03;;;;;;;12.05;3.40;;;;;26.00;100217.00;;;;4801276;29;20059;-75
2021/09/30 15:36:34;;;;;;;10.95;2.58;;;;;25.80;100181.00;;;;4801520;29;20058;-77
2021/09/30 15:39:06;;;;;;;6.03;3.20;;;;;26.20;100172.00;;;;4801272;29;20069;-76
2021/09/30 15:41:37;;;;;;;5.45;2.95;;;;;26.30;100144.00;;;;4805850;29;20058;-75